createdAt,value
2023-05-19T00:00:32.309Z,41.8570
2023-05-19T00:01:34.281Z,41.8490
2023-05-19T00:02:36.564Z,41.8490
2023-05-19T00:03:38.862Z,41.8490
2023-05-19T00:04:41.048Z,41.8140
2023-05-19T00:05:43.420Z,41.8380
2023-05-19T00:06:43.406Z,41.8260
2023-05-19T00:07:45.633Z,41.8380
2023-05-19T00:08:47.877Z,41.8260
2023-05-19T00:09:50.112Z,41.8260
2023-05-19T00:10:52.447Z,41.8320
2023-05-19T00:11:54.581Z,41.8260
2023-05-19T00:12:56.875Z,41.8320
2023-05-19T00:13:59.101Z,41.8980
2023-05-19T00:15:01.374Z,41.9100
2023-05-19T00:16:03.767Z,41.9770
2023-05-19T00:17:03.755Z,42.0670
2023-05-19T00:18:05.978Z,42.1480
2023-05-19T00:19:08.241Z,42.1830
2023-05-19T00:20:10.457Z,42.2740
2023-05-19T00:21:12.779Z,42.2910
2023-05-19T00:22:15.044Z,42.3170
2023-05-19T00:23:17.332Z,42.3520
2023-05-19T00:24:19.622Z,42.3720
2023-05-19T00:25:19.762Z,42.3900
2023-05-19T00:26:22.064Z,42.3950
2023-05-19T00:27:24.305Z,42.3840
2023-05-19T00:28:26.606Z,42.3900
2023-05-19T00:29:28.828Z,42.4070
2023-05-19T00:30:31.295Z,42.4070
2023-05-19T00:31:33.436Z,42.4110
2023-05-19T00:32:35.690Z,42.4010
2023-05-19T00:33:35.769Z,42.4130
2023-05-19T00:34:38.062Z,42.4110
2023-05-19T00:35:40.303Z,42.3970
2023-05-19T00:36:42.727Z,42.3740
2023-05-19T00:37:44.818Z,42.3970
2023-05-19T00:38:47.099Z,42.3740
2023-05-19T00:39:49.363Z,42.3780
2023-05-19T00:40:51.651Z,42.4010
2023-05-19T00:41:51.802Z,42.3900
2023-05-19T00:42:54.071Z,42.3900
2023-05-19T00:43:56.432Z,42.3900
2023-05-19T00:44:58.611Z,42.3840
2023-05-19T00:46:00.875Z,42.3900
2023-05-19T00:47:03.218Z,42.3960
2023-05-19T00:48:05.336Z,42.3950
2023-05-19T00:49:07.549Z,42.3720
2023-05-19T00:50:09.800Z,42.3520
2023-05-19T00:51:09.940Z,42.3580
2023-05-19T00:52:12.240Z,42.3530
2023-05-19T00:53:14.495Z,42.3410
2023-05-19T00:54:16.776Z,42.3340
2023-05-19T00:55:19.018Z,42.3290
2023-05-19T00:56:21.265Z,42.3350
2023-05-19T00:57:23.598Z,42.3230
2023-05-19T00:58:25.752Z,42.3350
2023-05-19T00:59:25.931Z,42.3350
2023-05-19T01:00:28.255Z,42.3050
2023-05-19T01:01:30.502Z,42.2930
2023-05-19T01:02:32.845Z,42.2860
2023-05-19T01:03:35.371Z,42.2860
2023-05-19T01:04:37.322Z,42.2800
2023-05-19T01:05:39.617Z,42.2740
2023-05-19T01:06:41.940Z,42.2560
2023-05-19T01:07:42.127Z,42.2680
2023-05-19T01:08:44.358Z,42.2500
2023-05-19T01:09:46.648Z,42.2500
2023-05-19T01:10:48.847Z,42.2330
2023-05-19T01:11:51.141Z,42.2210
2023-05-19T01:12:53.431Z,42.2010
2023-05-19T01:13:55.619Z,42.1830
2023-05-19T01:14:55.710Z,42.1950
2023-05-19T01:17:02.476Z,42.2720
2023-05-19T01:18:04.576Z,42.2330
2023-05-19T01:19:06.721Z,42.2350
2023-05-19T01:20:08.865Z,42.2050
2023-05-19T01:21:11.050Z,42.1870
2023-05-19T01:22:13.435Z,42.2110
2023-05-19T01:23:15.467Z,42.1810
2023-05-19T01:24:17.681Z,42.1680
2023-05-19T01:25:19.932Z,42.1320
2023-05-19T01:26:22.172Z,42.1380
2023-05-19T01:27:22.240Z,42.1210
2023-05-19T01:28:24.482Z,42.1090
2023-05-19T01:29:26.679Z,42.1210
2023-05-19T01:30:28.935Z,42.1090
2023-05-19T01:31:31.144Z,42.1210
2023-05-19T01:32:33.397Z,42.1150
2023-05-19T01:33:35.612Z,42.1210
2023-05-19T01:34:37.795Z,42.1210
2023-05-19T01:35:40.017Z,42.0950
2023-05-19T01:36:42.249Z,42.0720
2023-05-19T01:37:44.416Z,42.0600
2023-05-19T01:38:46.666Z,42.0750
2023-05-19T01:39:48.848Z,42.0750
2023-05-19T01:40:51.071Z,42.0640
2023-05-19T01:41:51.147Z,42.0640
2023-05-19T01:42:54.280Z,42.0500
2023-05-19T01:43:55.522Z,42.0540
2023-05-19T01:44:57.662Z,42.0440
2023-05-19T01:45:59.910Z,42.0360
2023-05-19T01:47:01.983Z,41.9990
2023-05-19T01:48:04.240Z,42.0380
2023-05-19T01:49:06.390Z,42.0320
2023-05-19T01:50:08.551Z,42.0380
2023-05-19T01:51:10.750Z,42.0110
2023-05-19T01:52:12.952Z,42.0390
2023-05-19T01:53:15.136Z,42.0390
2023-05-19T01:54:17.404Z,42.0270
2023-05-19T01:55:19.590Z,42.0210
2023-05-19T01:56:21.801Z,42.0090
2023-05-19T01:57:24.018Z,42.0090
2023-05-19T01:58:26.228Z,41.9860
2023-05-19T01:59:28.469Z,41.9970
2023-05-19T02:00:30.881Z,41.9860
2023-05-19T02:01:32.910Z,41.9910
2023-05-19T02:02:32.932Z,41.9720
2023-05-19T02:03:35.129Z,41.9860
2023-05-19T02:04:37.362Z,41.9780
2023-05-19T02:05:39.528Z,41.9720
2023-05-19T02:06:41.755Z,41.9720
2023-05-19T02:07:44.027Z,41.9660
2023-05-19T02:08:46.188Z,41.9640
2023-05-19T02:09:48.460Z,41.9760
2023-05-19T02:10:50.635Z,41.9820
2023-05-19T02:11:52.854Z,41.9580
2023-05-19T02:12:55.074Z,41.9520
2023-05-19T02:13:57.304Z,41.9700
2023-05-19T02:14:59.572Z,41.9720
2023-05-19T02:15:59.657Z,42.0150
2023-05-19T02:17:01.883Z,42.0390
2023-05-19T02:18:04.142Z,42.0510
2023-05-19T02:19:06.375Z,42.1000
2023-05-19T02:20:09.092Z,42.1170
2023-05-19T02:21:10.782Z,42.1330
2023-05-19T02:22:13.012Z,42.1390
2023-05-19T02:23:15.236Z,42.1310
2023-05-19T02:24:17.460Z,42.1170
2023-05-19T02:25:19.709Z,42.0780
2023-05-19T02:26:21.917Z,42.0450
2023-05-19T02:27:21.999Z,42.0580
2023-05-19T02:28:24.246Z,42.0510
2023-05-19T02:29:26.483Z,42.0510
2023-05-19T02:30:28.721Z,42.0640
2023-05-19T02:31:30.924Z,42.0760
2023-05-19T02:32:33.353Z,42.0880
2023-05-19T02:33:35.354Z,42.1170
2023-05-19T02:34:37.619Z,42.1230
2023-05-19T02:35:39.877Z,42.1170
2023-05-19T02:36:42.119Z,42.1000
2023-05-19T02:37:44.385Z,42.1050
2023-05-19T02:38:44.504Z,42.1110
2023-05-19T02:40:23.360Z,42.1580
2023-05-19T02:41:24.458Z,42.1040
2023-05-19T02:42:25.606Z,42.1150
2023-05-19T02:43:27.773Z,42.0780
2023-05-19T02:44:30.023Z,42.0820
2023-05-19T02:45:32.237Z,42.0660
2023-05-19T02:46:34.577Z,42.0540
2023-05-19T02:47:37.286Z,42.0490
2023-05-19T02:48:36.789Z,42.0490
2023-05-19T02:49:38.975Z,42.0430
2023-05-19T02:50:41.202Z,42.0060
2023-05-19T02:51:43.435Z,42.0000
2023-05-19T02:52:45.668Z,42.0110
2023-05-19T02:53:47.882Z,42.0000
2023-05-19T02:54:50.130Z,42.0000
2023-05-19T02:55:52.390Z,41.9940
2023-05-19T02:56:54.701Z,41.9880
2023-05-19T02:57:56.888Z,41.9760
2023-05-19T02:58:59.094Z,41.9580
2023-05-19T02:59:59.163Z,41.9580
2023-05-19T03:01:01.358Z,41.9390
2023-05-19T03:02:03.692Z,41.9470
2023-05-19T03:03:05.919Z,41.9330
2023-05-19T03:04:08.056Z,41.9370
2023-05-19T03:05:10.201Z,41.9370
2023-05-19T03:06:12.412Z,41.9370
2023-05-19T03:07:14.636Z,41.9310
2023-05-19T03:08:16.838Z,41.9310
2023-05-19T03:09:19.047Z,41.9090
2023-05-19T03:10:21.264Z,41.8940
2023-05-19T03:11:23.504Z,41.9090
2023-05-19T03:12:25.735Z,41.9280
2023-05-19T03:13:27.923Z,41.9500
2023-05-19T03:14:27.985Z,41.9250
2023-05-19T03:15:30.211Z,41.9070
2023-05-19T03:16:32.469Z,41.9220
2023-05-19T03:17:34.749Z,41.8700
2023-05-19T03:18:36.840Z,41.8620
2023-05-19T03:19:38.963Z,41.8670
2023-05-19T03:20:41.803Z,41.8500
2023-05-19T03:21:43.308Z,41.8620
2023-05-19T03:22:45.550Z,41.8580
2023-05-19T03:23:47.744Z,41.8440
2023-05-19T03:24:49.974Z,41.8240
2023-05-19T03:25:52.226Z,41.8220
2023-05-19T03:26:54.424Z,41.8170
2023-05-19T03:27:56.671Z,41.8170
2023-05-19T03:28:58.837Z,41.8050
2023-05-19T03:30:01.063Z,41.8170
2023-05-19T03:31:03.248Z,41.8170
2023-05-19T03:32:03.376Z,41.8170
2023-05-19T03:33:05.741Z,41.8170
2023-05-19T03:34:07.850Z,41.8110
2023-05-19T03:35:09.996Z,41.8050
2023-05-19T03:36:12.184Z,41.7730
2023-05-19T03:37:14.375Z,41.7500
2023-05-19T03:38:16.617Z,41.7560
2023-05-19T03:39:18.743Z,41.7680
2023-05-19T03:40:20.936Z,41.7800
2023-05-19T03:41:23.121Z,41.7680
2023-05-19T03:42:25.344Z,41.7500
2023-05-19T03:43:27.550Z,41.7560
2023-05-19T03:44:29.714Z,41.7680
2023-05-19T03:45:31.981Z,41.7620
2023-05-19T03:46:34.045Z,41.7500
2023-05-19T03:47:36.219Z,41.7560
2023-05-19T03:48:36.302Z,41.7520
2023-05-19T03:49:38.709Z,41.7520
2023-05-19T03:50:40.751Z,41.7560
2023-05-19T03:51:42.951Z,41.7520
2023-05-19T03:52:45.165Z,41.7580
2023-05-19T03:53:47.386Z,41.7520
2023-05-19T03:54:49.584Z,41.7400
2023-05-19T03:55:51.833Z,41.7500
2023-05-19T03:56:54.022Z,41.7460
2023-05-19T03:57:56.284Z,41.7460
2023-05-19T03:58:58.455Z,41.7400
2023-05-19T04:00:00.637Z,41.7390
2023-05-19T04:01:02.840Z,41.7350
2023-05-19T04:02:05.126Z,41.7290
2023-05-19T04:03:05.184Z,41.7290
2023-05-19T04:04:07.334Z,41.7230
2023-05-19T04:05:09.446Z,41.6950
2023-05-19T04:06:11.627Z,41.7050
2023-05-19T04:07:13.816Z,41.7010
2023-05-19T04:08:16.018Z,41.6830
2023-05-19T04:09:18.351Z,41.6720
2023-05-19T04:10:20.448Z,41.6860
2023-05-19T04:11:22.646Z,41.6770
2023-05-19T04:12:24.857Z,41.6600
2023-05-19T04:13:27.077Z,41.6680
2023-05-19T04:14:29.306Z,41.6400
2023-05-19T04:15:31.508Z,41.6600
2023-05-19T04:16:33.694Z,41.6460
2023-05-19T04:17:35.958Z,41.6440
2023-05-19T04:18:38.153Z,41.6440
2023-05-19T04:19:40.368Z,41.6460
2023-05-19T04:20:40.425Z,41.6170
2023-05-19T04:21:42.624Z,41.6230
2023-05-19T04:22:44.816Z,41.6170
2023-05-19T04:23:46.933Z,41.5930
2023-05-19T04:24:49.139Z,41.5990
2023-05-19T04:25:51.324Z,41.5990
2023-05-19T04:26:53.506Z,41.5990
2023-05-19T04:27:55.679Z,41.5930
2023-05-19T04:28:57.780Z,41.5990
2023-05-19T04:29:59.958Z,41.6050
2023-05-19T04:31:02.198Z,41.6130
2023-05-19T04:32:04.362Z,41.6050
2023-05-19T04:33:06.606Z,41.5930
2023-05-19T04:34:08.749Z,41.5800
2023-05-19T04:35:10.878Z,41.5800
2023-05-19T04:36:13.029Z,41.5870
2023-05-19T04:37:15.204Z,41.5800
2023-05-19T04:38:17.398Z,41.5870
2023-05-19T04:39:19.561Z,41.5740
2023-05-19T04:40:21.798Z,41.5620
2023-05-19T04:41:23.972Z,41.5620
2023-05-19T04:42:26.230Z,41.5740
2023-05-19T04:43:28.339Z,41.5870
2023-05-19T04:44:30.541Z,41.5800
2023-05-19T04:45:30.626Z,41.5930
2023-05-19T04:46:32.906Z,41.5990
2023-05-19T04:47:35.114Z,41.5870
2023-05-19T04:48:37.275Z,41.5680
2023-05-19T04:49:39.586Z,41.5560
2023-05-19T04:50:41.734Z,41.5620
2023-05-19T04:51:43.924Z,41.5500
2023-05-19T04:52:46.125Z,41.5270
2023-05-19T04:53:48.339Z,41.5460
2023-05-19T04:54:50.573Z,41.5460
2023-05-19T04:55:52.840Z,41.5540
2023-05-19T04:56:54.989Z,41.5500
2023-05-19T04:57:57.197Z,41.5460
2023-05-19T04:58:57.310Z,41.5110
2023-05-19T04:59:59.536Z,41.5220
2023-05-19T05:01:01.821Z,41.5140
2023-05-19T05:02:04.061Z,41.4840
2023-05-19T05:03:06.320Z,41.4900
2023-05-19T05:04:08.583Z,41.4900
2023-05-19T05:05:10.713Z,41.4960
2023-05-19T05:06:12.912Z,41.5020
2023-05-19T05:07:15.153Z,41.4900
2023-05-19T05:08:17.331Z,41.4680
2023-05-19T05:09:19.550Z,41.4570
2023-05-19T05:10:21.758Z,41.4570
2023-05-19T05:11:24.012Z,41.4800
2023-05-19T05:12:24.038Z,41.4780
2023-05-19T05:13:26.269Z,41.5050
2023-05-19T05:14:28.481Z,41.4780
2023-05-19T05:15:30.738Z,41.5170
2023-05-19T05:16:32.948Z,41.4960
2023-05-19T05:17:35.181Z,41.4530
2023-05-19T05:18:37.319Z,41.4590
2023-05-19T05:19:39.524Z,41.4350
2023-05-19T05:20:41.746Z,41.4470
2023-05-19T05:21:43.973Z,41.4290
2023-05-19T05:22:46.170Z,41.4290
2023-05-19T05:23:48.353Z,41.4440
2023-05-19T05:24:50.491Z,41.4560
2023-05-19T05:25:52.699Z,41.4180
2023-05-19T05:26:54.961Z,41.4180
2023-05-19T05:29:16.629Z,41.5010
2023-05-19T05:30:18.743Z,41.4500
2023-05-19T05:31:20.918Z,41.4060
2023-05-19T05:32:23.197Z,41.4080
2023-05-19T05:33:25.472Z,41.3900
2023-05-19T05:34:27.525Z,41.3900
2023-05-19T05:35:29.851Z,41.3780
2023-05-19T05:36:31.993Z,41.3730
2023-05-19T05:37:34.245Z,41.3840
2023-05-19T05:38:34.330Z,41.3900
2023-05-19T05:39:36.552Z,41.3780
2023-05-19T05:40:38.792Z,41.3900
2023-05-19T05:41:41.031Z,41.3960
2023-05-19T05:42:43.305Z,41.3670
2023-05-19T05:43:45.520Z,41.3530
2023-05-19T05:44:47.795Z,41.3730
2023-05-19T05:45:50.069Z,41.4090
2023-05-19T05:46:52.315Z,41.4020
2023-05-19T05:47:54.635Z,41.3730
2023-05-19T05:48:56.827Z,41.3730
2023-05-19T05:49:59.081Z,41.3670
2023-05-19T05:50:59.214Z,41.3530
2023-05-19T05:52:06.401Z,41.3530
2023-05-19T05:53:03.657Z,41.3780
2023-05-19T05:54:05.879Z,41.3670
2023-05-19T05:55:08.128Z,41.3860
2023-05-19T05:56:10.355Z,41.3630
2023-05-19T05:57:12.600Z,41.3680
2023-05-19T05:58:14.864Z,41.3570
2023-05-19T05:59:17.091Z,41.3570
2023-05-19T06:00:19.283Z,41.3860
2023-05-19T06:01:21.470Z,41.3980
2023-05-19T06:02:23.792Z,41.4350
2023-05-19T06:03:23.858Z,41.4230
2023-05-19T06:04:26.048Z,41.4350
2023-05-19T06:05:28.302Z,41.4410
2023-05-19T06:06:30.425Z,41.4410
2023-05-19T06:07:32.545Z,41.4290
2023-05-19T06:08:34.747Z,41.4470
2023-05-19T06:09:36.948Z,41.4470
2023-05-19T06:10:39.159Z,41.4650
2023-05-19T06:11:41.321Z,41.4250
2023-05-19T06:12:43.533Z,41.4310
2023-05-19T06:13:45.763Z,41.4250
2023-05-19T06:14:47.897Z,41.4190
2023-05-19T06:15:50.118Z,41.4170
2023-05-19T06:16:52.276Z,41.3860
2023-05-19T06:17:54.540Z,41.4190
2023-05-19T06:18:56.646Z,41.4190
2023-05-19T06:19:58.714Z,41.4020
2023-05-19T06:20:58.720Z,41.4190
2023-05-19T06:22:00.801Z,41.3840
2023-05-19T06:23:02.946Z,41.3890
2023-05-19T06:24:05.168Z,41.3700
2023-05-19T06:25:07.339Z,41.3890
2023-05-19T06:26:09.466Z,41.3700
2023-05-19T06:27:11.633Z,41.3700
2023-05-19T06:28:13.793Z,41.3580
2023-05-19T06:29:16.023Z,41.3410
2023-05-19T06:30:18.149Z,41.3410
2023-05-19T06:31:20.343Z,41.3410
2023-05-19T06:32:22.505Z,41.3580
2023-05-19T06:33:26.691Z,41.3520
2023-05-19T06:34:26.793Z,41.3950
2023-05-19T06:35:28.946Z,41.3700
2023-05-19T06:36:31.144Z,41.3780
2023-05-19T06:37:33.279Z,41.3520
2023-05-19T06:38:35.505Z,41.3580
2023-05-19T06:39:37.809Z,41.3460
2023-05-19T06:40:39.941Z,41.3580
2023-05-19T06:41:42.041Z,41.3460
2023-05-19T06:42:44.177Z,41.3780
2023-05-19T06:43:46.363Z,41.3910
2023-05-19T06:44:48.566Z,41.3850
2023-05-19T06:45:48.544Z,41.3910
2023-05-19T06:46:50.743Z,41.3850
2023-05-19T06:47:52.945Z,41.3850
2023-05-19T06:48:55.040Z,41.3850
2023-05-19T06:49:57.195Z,41.3740
2023-05-19T06:50:59.282Z,41.3680
2023-05-19T06:52:01.471Z,41.3310
2023-05-19T06:53:03.655Z,41.3500
2023-05-19T06:54:05.763Z,41.3250
2023-05-19T06:55:07.942Z,41.3250
2023-05-19T06:56:10.090Z,41.3190
2023-05-19T06:57:12.231Z,41.3130
2023-05-19T06:58:14.377Z,41.3190
2023-05-19T06:59:16.491Z,41.3130
2023-05-19T07:00:32.032Z,41.3070
2023-05-19T07:01:20.838Z,41.3460
2023-05-19T07:02:23.012Z,41.3500
2023-05-19T07:03:25.310Z,41.3310
2023-05-19T07:04:27.468Z,41.3010
2023-05-19T07:05:29.651Z,41.3070
2023-05-19T07:06:31.841Z,41.3010
2023-05-19T07:07:34.028Z,41.3190
2023-05-19T07:08:34.120Z,41.3050
2023-05-19T07:09:36.365Z,41.3070
2023-05-19T07:10:38.621Z,41.2900
2023-05-19T07:11:40.864Z,41.2840
2023-05-19T07:12:43.039Z,41.2720
2023-05-19T07:13:45.270Z,41.2780
2023-05-19T07:14:47.467Z,41.2720
2023-05-19T07:15:49.896Z,41.2470
2023-05-19T07:16:52.060Z,41.2470
2023-05-19T07:17:54.202Z,41.2640
2023-05-19T07:18:56.405Z,41.2350
2023-05-19T07:19:58.574Z,41.2110
2023-05-19T07:20:58.721Z,41.2110
2023-05-19T07:23:17.371Z,41.2860
2023-05-19T07:24:18.273Z,41.2410
2023-05-19T07:25:19.313Z,41.2230
2023-05-19T07:26:20.522Z,41.2530
2023-05-19T07:27:22.732Z,41.2230
2023-05-19T07:28:24.858Z,41.2110
2023-05-19T07:29:27.007Z,41.2050
2023-05-19T07:30:29.165Z,41.1800
2023-05-19T07:31:31.524Z,41.2050
2023-05-19T07:32:33.737Z,41.1970
2023-05-19T07:33:35.783Z,41.1970
2023-05-19T07:34:37.994Z,41.1860
2023-05-19T07:35:40.203Z,41.1860
2023-05-19T07:36:42.541Z,41.1800
2023-05-19T07:37:44.639Z,41.1740
2023-05-19T07:38:46.874Z,41.1800
2023-05-19T07:39:49.075Z,41.1680
2023-05-19T07:40:49.139Z,41.1740
2023-05-19T07:41:51.507Z,41.1800
2023-05-19T07:42:53.603Z,41.1500
2023-05-19T07:43:55.830Z,41.1350
2023-05-19T07:44:58.028Z,41.1520
2023-05-19T07:46:00.286Z,41.1460
2023-05-19T07:47:02.565Z,41.1230
2023-05-19T07:48:04.803Z,41.1110
2023-05-19T07:49:06.965Z,41.1170
2023-05-19T07:50:09.205Z,41.1050
2023-05-19T07:51:11.439Z,41.0800
2023-05-19T07:52:13.665Z,41.0800
2023-05-19T07:53:15.794Z,41.0860
2023-05-19T07:54:15.814Z,41.1110
2023-05-19T07:55:18.017Z,41.1050
2023-05-19T07:56:20.212Z,41.0990
2023-05-19T07:57:22.560Z,41.0680
2023-05-19T07:58:24.579Z,41.0690
2023-05-19T07:59:26.714Z,41.0690
2023-05-19T08:00:28.917Z,41.0630
2023-05-19T08:01:31.126Z,41.0570
2023-05-19T08:02:33.445Z,41.0500
2023-05-19T08:03:35.693Z,41.0440
2023-05-19T08:04:37.771Z,41.0440
2023-05-19T08:05:39.969Z,41.0500
2023-05-19T08:06:42.197Z,41.0570
2023-05-19T08:07:44.548Z,41.0500
2023-05-19T08:08:46.687Z,41.0440
2023-05-19T08:09:46.772Z,41.0320
2023-05-19T08:10:49.036Z,41.0090
2023-05-19T08:11:51.282Z,41.0140
2023-05-19T08:12:53.591Z,40.9890
2023-05-19T08:13:55.831Z,40.9960
2023-05-19T08:15:00.363Z,40.9710
2023-05-19T08:16:00.380Z,40.9830
2023-05-19T08:17:02.557Z,40.9960
2023-05-19T08:18:04.840Z,40.9960
2023-05-19T08:19:04.933Z,40.9710
2023-05-19T08:20:07.166Z,40.9650
2023-05-19T08:21:09.418Z,40.9650
2023-05-19T08:22:11.626Z,40.9650
2023-05-19T08:23:13.898Z,40.9710
2023-05-19T08:24:16.119Z,40.9650
2023-05-19T08:25:18.374Z,40.9650
2023-05-19T08:26:20.629Z,40.9710
2023-05-19T08:27:22.879Z,40.9590
2023-05-19T08:28:25.188Z,40.8440
2023-05-19T08:29:27.417Z,40.1330
2023-05-19T08:30:29.640Z,39.6870
2023-05-19T08:31:31.935Z,39.4110
2023-05-19T08:32:34.090Z,39.3590
2023-05-19T08:33:36.387Z,39.2080
2023-05-19T08:34:38.499Z,39.0990
2023-05-19T08:35:40.737Z,39.0670
2023-05-19T08:36:42.964Z,39.0310
2023-05-19T08:37:45.198Z,39.0450
2023-05-19T08:38:47.380Z,39.1990
2023-05-19T08:39:47.379Z,39.4190
2023-05-19T08:40:49.605Z,39.4520
2023-05-19T08:41:51.818Z,39.5020
2023-05-19T08:42:54.004Z,39.5710
2023-05-19T08:43:56.359Z,39.3410
2023-05-19T08:44:58.501Z,39.0670
2023-05-19T08:46:00.660Z,39.0590
2023-05-19T08:47:03.083Z,39.0210
2023-05-19T08:48:05.294Z,39.0500
2023-05-19T08:49:07.510Z,38.9990
2023-05-19T08:50:09.630Z,38.8540
2023-05-19T08:51:11.871Z,38.8280
2023-05-19T08:52:14.126Z,38.8280
2023-05-19T08:53:28.965Z,38.8090
2023-05-19T08:54:16.504Z,38.8480
2023-05-19T08:55:18.736Z,38.7410
2023-05-19T08:56:20.961Z,38.7640
2023-05-19T08:57:23.230Z,38.7640
2023-05-19T08:58:26.805Z,38.8120
2023-05-19T08:59:25.610Z,38.8800
2023-05-19T09:00:27.863Z,38.7910
2023-05-19T09:01:27.996Z,38.7380
2023-05-19T09:02:30.178Z,38.6910
2023-05-19T09:03:32.475Z,38.7000
2023-05-19T09:04:34.703Z,38.6210
2023-05-19T09:05:36.980Z,38.7210
2023-05-19T09:06:38.972Z,38.9170
2023-05-19T09:07:41.202Z,39.1840
2023-05-19T09:08:43.435Z,39.4420
2023-05-19T09:09:45.680Z,39.8670
2023-05-19T09:10:47.846Z,40.0200
2023-05-19T09:11:50.046Z,40.1590
2023-05-19T09:12:52.235Z,40.2290
2023-05-19T09:13:54.479Z,40.2010
2023-05-19T09:14:54.600Z,40.1780
2023-05-19T09:15:56.818Z,40.1640
2023-05-19T09:16:59.057Z,40.1140
2023-05-19T09:18:01.309Z,40.0740
2023-05-19T09:19:03.490Z,40.0440
2023-05-19T09:20:05.734Z,40.0700
2023-05-19T09:21:07.893Z,40.0120
2023-05-19T09:22:10.095Z,39.9650
2023-05-19T09:23:12.298Z,39.9530
2023-05-19T09:24:14.511Z,39.9530
2023-05-19T09:25:16.739Z,39.9470
2023-05-19T09:26:18.930Z,39.9100
2023-05-19T09:27:21.093Z,39.9610
2023-05-19T09:28:23.287Z,40.0020
2023-05-19T09:29:25.502Z,40.0020
2023-05-19T09:30:25.587Z,40.0310
2023-05-19T09:31:27.819Z,40.1510
2023-05-19T09:32:30.128Z,40.1180
2023-05-19T09:33:32.107Z,40.1600
2023-05-19T09:34:34.336Z,40.2410
2023-05-19T09:35:36.501Z,40.1770
2023-05-19T09:36:38.684Z,40.1020
2023-05-19T09:37:40.885Z,40.3530
2023-05-19T09:38:43.119Z,40.3840
2023-05-19T09:39:45.311Z,40.3970
2023-05-19T09:40:47.562Z,40.4340
2023-05-19T09:41:49.739Z,40.4750
2023-05-19T09:42:51.949Z,40.3150
2023-05-19T09:43:54.154Z,40.3290
2023-05-19T09:44:56.376Z,40.3700
2023-05-19T09:45:58.679Z,40.4790
2023-05-19T09:46:58.868Z,40.3360
2023-05-19T09:48:01.010Z,40.1690
2023-05-19T09:49:03.233Z,40.3300
2023-05-19T09:50:05.496Z,40.3580
2023-05-19T09:51:07.964Z,40.3700
2023-05-19T09:52:11.154Z,40.2610
2023-05-19T09:53:12.296Z,40.2730
2023-05-19T09:54:14.521Z,40.2880
2023-05-19T09:55:16.770Z,40.2460
2023-05-19T09:56:16.853Z,40.2070
2023-05-19T09:57:19.082Z,40.2180
2023-05-19T09:58:21.242Z,40.2980
2023-05-19T09:59:23.447Z,40.2960
2023-05-19T10:00:25.667Z,40.2390
2023-05-19T10:01:27.924Z,40.4060
2023-05-19T10:02:30.106Z,40.2620
2023-05-19T10:03:32.292Z,40.2870
2023-05-19T10:04:34.499Z,40.4100
2023-05-19T10:05:36.703Z,40.4210
2023-05-19T10:06:38.986Z,40.4510
2023-05-19T10:07:41.234Z,40.4210
2023-05-19T10:08:43.454Z,40.3590
2023-05-19T10:09:43.573Z,40.3470
2023-05-19T10:10:45.796Z,39.9630
2023-05-19T10:11:48.087Z,39.3750
2023-05-19T10:12:50.309Z,39.2330
2023-05-19T10:13:52.577Z,39.2970
2023-05-19T10:14:54.858Z,39.2680
2023-05-19T10:15:59.380Z,39.3440
2023-05-19T10:16:59.452Z,39.4640
2023-05-19T10:18:01.556Z,39.5590
2023-05-19T10:20:37.165Z,39.8830
2023-05-19T10:21:39.321Z,39.8770
2023-05-19T10:22:41.469Z,39.8830
2023-05-19T10:23:41.500Z,39.8790
2023-05-19T10:24:43.698Z,39.8320
2023-05-19T10:25:45.888Z,39.8190
2023-05-19T10:26:48.091Z,39.8380
2023-05-19T10:27:50.283Z,39.8450
2023-05-19T10:28:52.479Z,39.8570
2023-05-19T10:29:54.647Z,39.8510
2023-05-19T10:30:56.838Z,39.8510
2023-05-19T10:31:59.014Z,39.7680
2023-05-19T10:33:01.233Z,39.7850
2023-05-19T10:34:03.423Z,39.8400
2023-05-19T10:35:05.465Z,39.8760
2023-05-19T10:36:07.634Z,39.8930
2023-05-19T10:37:09.824Z,39.8370
2023-05-19T10:38:12.001Z,39.8400
2023-05-19T10:39:14.146Z,39.8030
2023-05-19T10:40:16.299Z,39.7880
2023-05-19T10:41:18.483Z,39.7700
2023-05-19T10:42:20.649Z,39.7880
2023-05-19T10:43:22.839Z,39.7990
2023-05-19T10:44:24.994Z,39.7700
2023-05-19T10:45:27.221Z,39.7870
2023-05-19T10:46:29.494Z,39.7660
2023-05-19T10:47:31.688Z,39.7370
2023-05-19T10:48:31.747Z,39.7310
2023-05-19T10:49:34.002Z,39.7310
2023-05-19T10:50:36.189Z,39.7390
2023-05-19T10:51:38.444Z,39.7240
2023-05-19T10:52:40.589Z,39.7110
2023-05-19T10:53:42.868Z,39.7110
2023-05-19T10:54:45.038Z,39.7300
2023-05-19T10:55:47.278Z,39.7540
2023-05-19T10:56:49.508Z,39.7920
2023-05-19T10:57:51.742Z,39.8370
2023-05-19T10:58:54.014Z,39.8740
2023-05-19T10:59:56.226Z,39.9670
2023-05-19T11:00:58.457Z,40.0200
2023-05-19T11:02:00.758Z,40.0520
2023-05-19T11:03:02.946Z,40.1180
2023-05-19T11:04:05.142Z,40.1820
2023-05-19T11:05:07.362Z,40.2010
2023-05-19T11:06:09.497Z,40.1630
2023-05-19T11:07:11.714Z,40.1980
2023-05-19T11:08:13.980Z,40.2530
2023-05-19T11:09:16.240Z,40.2590
2023-05-19T11:10:18.413Z,40.2910
2023-05-19T11:11:20.605Z,40.3150
2023-05-19T11:12:20.696Z,40.3280
2023-05-19T11:13:23.292Z,40.4000
2023-05-19T11:14:25.197Z,40.4290
2023-05-19T11:15:27.385Z,40.4580
2023-05-19T11:16:29.670Z,40.4890
2023-05-19T11:17:33.118Z,40.4280
2023-05-19T11:18:34.038Z,40.3580
2023-05-19T11:19:36.289Z,39.9890
2023-05-19T11:20:38.763Z,40.0860
2023-05-19T11:21:40.762Z,40.2230
2023-05-19T11:22:43.037Z,40.2470
2023-05-19T11:23:45.238Z,40.2470
2023-05-19T11:24:45.291Z,40.2120
2023-05-19T11:25:47.434Z,40.1840
2023-05-19T11:26:49.647Z,40.1570
2023-05-19T11:27:51.832Z,40.1450
2023-05-19T11:28:53.998Z,40.1840
2023-05-19T11:29:56.180Z,40.1620
2023-05-19T11:30:58.418Z,40.1830
2023-05-19T11:32:00.661Z,40.2070
2023-05-19T11:33:02.840Z,40.1730
2023-05-19T11:34:04.994Z,40.1730
2023-05-19T11:35:07.161Z,40.1610
2023-05-19T11:36:09.303Z,40.1490
2023-05-19T11:37:11.409Z,40.1440
2023-05-19T11:38:13.566Z,40.1450
2023-05-19T11:39:15.736Z,40.1240
2023-05-19T11:40:17.916Z,40.1120
2023-05-19T11:41:20.871Z,40.0960
2023-05-19T11:42:22.273Z,40.0850
2023-05-19T11:43:24.483Z,40.1000
2023-05-19T11:44:26.654Z,40.1000
2023-05-19T11:45:28.894Z,40.0990
2023-05-19T11:46:31.059Z,40.1240
2023-05-19T11:47:42.584Z,40.1300
2023-05-19T11:48:35.341Z,40.1900
2023-05-19T11:49:37.478Z,40.1780
2023-05-19T11:50:39.728Z,40.1900
2023-05-19T11:51:41.764Z,40.2170
2023-05-19T11:52:41.655Z,40.2170
2023-05-19T11:53:43.754Z,40.1900
2023-05-19T11:54:45.852Z,40.1800
2023-05-19T11:55:48.375Z,40.1820
2023-05-19T11:56:50.132Z,40.1950
2023-05-19T11:58:02.779Z,40.1890
2023-05-19T11:58:54.453Z,40.2240
2023-05-19T11:59:56.607Z,40.1910
2023-05-19T12:00:58.872Z,40.2150
2023-05-19T12:02:00.929Z,40.2450
2023-05-19T12:03:03.195Z,40.2260
2023-05-19T12:04:05.359Z,40.1600
2023-05-19T12:05:07.377Z,39.7730
2023-05-19T12:06:07.424Z,39.5680
2023-05-19T12:07:09.496Z,39.8550
2023-05-19T12:08:11.652Z,40.0410
2023-05-19T12:09:11.569Z,40.1130
2023-05-19T12:10:13.644Z,40.1020
2023-05-19T12:11:16.997Z,40.1070
2023-05-19T12:12:17.808Z,40.1100
2023-05-19T12:13:19.926Z,40.0980
2023-05-19T12:14:22.081Z,40.1230
2023-05-19T12:15:24.256Z,40.1100
2023-05-19T12:16:26.524Z,40.1290
2023-05-19T12:17:28.719Z,40.1350
2023-05-19T12:18:30.846Z,40.1350
2023-05-19T12:19:33.102Z,40.1410
2023-05-19T12:20:35.266Z,40.1410
2023-05-19T12:21:37.413Z,40.1410
2023-05-19T12:22:39.676Z,40.1350
2023-05-19T12:23:41.803Z,40.1470
2023-05-19T12:24:44.020Z,40.1310
2023-05-19T12:25:46.157Z,40.1310
2023-05-19T12:26:48.424Z,40.1300
2023-05-19T12:27:48.443Z,40.1360
2023-05-19T12:30:07.997Z,40.1910
2023-05-19T12:31:09.067Z,40.1670
2023-05-19T12:32:10.289Z,40.1730
2023-05-19T12:33:12.280Z,40.1790
2023-05-19T12:34:14.383Z,40.1870
2023-05-19T12:35:16.513Z,40.1920
2023-05-19T12:36:18.678Z,40.1920
2023-05-19T12:37:20.876Z,40.1810